sensor_id;sensor_type;location;lat;lon;timestamp;P1;durP1;ratioP1;P2;durP2;ratioP2
55300;SDS011;58302;51.446;-2.000;2023-06-10T00:02:08;18.52;;;10.50;;
55300;SDS011;58302;51.446;-2.000;2023-06-10T00:04:35;18.73;;;11.35;;
55300;SDS011;58302;51.446;-2.000;2023-06-10T00:07:03;20.48;;;11.32;;
55300;SDS011;58302;51.446;-2.000;2023-06-10T00:09:37;24.52;;;11.20;;
55300;SDS011;58302;51.446;-2.000;2023-06-10T00:12:04;18.58;;;10.60;;
55300;SDS011;58302;51.446;-2.000;2023-06-10T00:14:32;21.52;;;9.95;;
55300;SDS011;58302;51.446;-2.000;2023-06-10T00:16:59;19.83;;;10.48;;
55300;SDS011;58302;51.446;-2.000;2023-06-10T00:19:25;20.17;;;10.48;;
55300;SDS011;58302;51.446;-2.000;2023-06-10T00:21:56;16.27;;;10.93;;
55300;SDS011;58302;51.446;-2.000;2023-06-10T00:24:22;21.33;;;11.93;;
55300;SDS011;58302;51.446;-2.000;2023-06-10T00:26:48;20.17;;;11.73;;
55300;SDS011;58302;51.446;-2.000;2023-06-10T00:29:14;21.83;;;11.55;;
55300;SDS011;58302;51.446;-2.000;2023-06-10T00:31:40;19.90;;;10.48;;
55300;SDS011;58302;51.446;-2.000;2023-06-10T00:34:07;24.08;;;13.25;;
55300;SDS011;58302;51.446;-2.000;2023-06-10T00:36:33;22.85;;;13.40;;
55300;SDS011;58302;51.446;-2.000;2023-06-10T00:39:01;22.63;;;12.73;;
55300;SDS011;58302;51.446;-2.000;2023-06-10T00:41:27;22.63;;;12.05;;
55300;SDS011;58302;51.446;-2.000;2023-06-10T00:43:53;19.98;;;12.27;;
55300;SDS011;58302;51.446;-2.000;2023-06-10T00:46:19;21.67;;;11.35;;
55300;SDS011;58302;51.446;-2.000;2023-06-10T00:48:46;20.52;;;11.02;;
55300;SDS011;58302;51.446;-2.000;2023-06-10T00:51:12;27.00;;;13.52;;
55300;SDS011;58302;51.446;-2.000;2023-06-10T00:53:39;20.63;;;11.90;;
55300;SDS011;58302;51.446;-2.000;2023-06-10T00:56:07;21.55;;;12.75;;
55300;SDS011;58302;51.446;-2.000;2023-06-10T00:58:33;28.35;;;13.00;;
55300;SDS011;58302;51.446;-2.000;2023-06-10T01:00:59;24.58;;;12.95;;
55300;SDS011;58302;51.446;-2.000;2023-06-10T01:03:26;20.98;;;13.20;;
55300;SDS011;58302;51.446;-2.000;2023-06-10T01:05:53;22.42;;;13.30;;
55300;SDS011;58302;51.446;-2.000;2023-06-10T01:10:57;23.35;;;14.80;;
55300;SDS011;58302;51.446;-2.000;2023-06-10T01:13:27;25.25;;;15.18;;
55300;SDS011;58302;51.446;-2.000;2023-06-10T01:15:55;28.38;;;14.93;;
55300;SDS011;58302;51.446;-2.000;2023-06-10T01:18:22;26.58;;;15.30;;
55300;SDS011;58302;51.446;-2.000;2023-06-10T01:20:49;24.88;;;15.10;;
55300;SDS011;58302;51.446;-2.000;2023-06-10T01:23:15;30.10;;;17.02;;
55300;SDS011;58302;51.446;-2.000;2023-06-10T01:25:46;26.33;;;15.13;;
55300;SDS011;58302;51.446;-2.000;2023-06-10T01:31:41;28.98;;;15.77;;
55300;SDS011;58302;51.446;-2.000;2023-06-10T01:33:59;43.03;;;20.05;;
55300;SDS011;58302;51.446;-2.000;2023-06-10T01:36:27;34.25;;;17.25;;
55300;SDS011;58302;51.446;-2.000;2023-06-10T01:38:54;25.73;;;15.57;;
55300;SDS011;58302;51.446;-2.000;2023-06-10T01:41:21;28.35;;;16.73;;
55300;SDS011;58302;51.446;-2.000;2023-06-10T01:43:48;27.95;;;16.48;;
55300;SDS011;58302;51.446;-2.000;2023-06-10T01:46:15;32.92;;;18.30;;
55300;SDS011;58302;51.446;-2.000;2023-06-10T01:48:45;33.83;;;18.38;;
55300;SDS011;58302;51.446;-2.000;2023-06-10T01:51:11;31.20;;;18.27;;
55300;SDS011;58302;51.446;-2.000;2023-06-10T01:53:37;30.88;;;17.65;;
55300;SDS011;58302;51.446;-2.000;2023-06-10T01:56:03;25.40;;;16.88;;
55300;SDS011;58302;51.446;-2.000;2023-06-10T01:58:29;34.65;;;19.67;;
55300;SDS011;58302;51.446;-2.000;2023-06-10T02:00:55;28.83;;;15.80;;
55300;SDS011;58302;51.446;-2.000;2023-06-10T02:03:20;33.00;;;17.92;;
55300;SDS011;58302;51.446;-2.000;2023-06-10T02:05:46;33.97;;;17.55;;
55300;SDS011;58302;51.446;-2.000;2023-06-10T02:08:12;26.35;;;18.45;;
55300;SDS011;58302;51.446;-2.000;2023-06-10T02:10:38;27.30;;;17.17;;
55300;SDS011;58302;51.446;-2.000;2023-06-10T02:13:04;25.98;;;15.07;;
55300;SDS011;58302;51.446;-2.000;2023-06-10T02:15:30;29.98;;;16.65;;
55300;SDS011;58302;51.446;-2.000;2023-06-10T02:17:56;40.40;;;17.42;;
55300;SDS011;58302;51.446;-2.000;2023-06-10T02:20:23;28.77;;;16.85;;
55300;SDS011;58302;51.446;-2.000;2023-06-10T02:22:49;28.58;;;16.27;;
55300;SDS011;58302;51.446;-2.000;2023-06-10T02:25:15;25.15;;;15.68;;
55300;SDS011;58302;51.446;-2.000;2023-06-10T02:27:41;24.23;;;15.57;;
55300;SDS011;58302;51.446;-2.000;2023-06-10T02:30:07;37.15;;;18.33;;
55300;SDS011;58302;51.446;-2.000;2023-06-10T02:32:36;29.65;;;17.33;;
55300;SDS011;58302;51.446;-2.000;2023-06-10T02:35:02;36.50;;;19.10;;
55300;SDS011;58302;51.446;-2.000;2023-06-10T02:37:28;34.47;;;17.13;;
55300;SDS011;58302;51.446;-2.000;2023-06-10T02:39:54;33.30;;;16.98;;
55300;SDS011;58302;51.446;-2.000;2023-06-10T02:42:20;27.52;;;17.63;;
55300;SDS011;58302;51.446;-2.000;2023-06-10T02:44:46;27.15;;;15.52;;
55300;SDS011;58302;51.446;-2.000;2023-06-10T02:47:12;27.45;;;15.95;;
55300;SDS011;58302;51.446;-2.000;2023-06-10T02:49:37;24.75;;;16.40;;
55300;SDS011;58302;51.446;-2.000;2023-06-10T02:52:03;37.97;;;17.67;;
55300;SDS011;58302;51.446;-2.000;2023-06-10T02:54:30;32.95;;;17.35;;
55300;SDS011;58302;51.446;-2.000;2023-06-10T02:56:56;27.55;;;17.13;;
55300;SDS011;58302;51.446;-2.000;2023-06-10T02:59:22;34.58;;;18.15;;
55300;SDS011;58302;51.446;-2.000;2023-06-10T03:01:47;34.13;;;17.60;;
55300;SDS011;58302;51.446;-2.000;2023-06-10T03:04:13;34.28;;;18.48;;
55300;SDS011;58302;51.446;-2.000;2023-06-10T03:06:40;33.45;;;17.63;;
55300;SDS011;58302;51.446;-2.000;2023-06-10T03:09:11;36.20;;;18.05;;
55300;SDS011;58302;51.446;-2.000;2023-06-10T03:11:37;31.88;;;17.25;;
55300;SDS011;58302;51.446;-2.000;2023-06-10T03:14:03;31.27;;;17.58;;
55300;SDS011;58302;51.446;-2.000;2023-06-10T03:16:29;33.42;;;18.00;;
55300;SDS011;58302;51.446;-2.000;2023-06-10T03:18:58;31.48;;;18.67;;
55300;SDS011;58302;51.446;-2.000;2023-06-10T03:21:23;33.22;;;18.73;;
55300;SDS011;58302;51.446;-2.000;2023-06-10T03:23:50;30.23;;;16.42;;
55300;SDS011;58302;51.446;-2.000;2023-06-10T03:26:16;27.13;;;17.38;;
55300;SDS011;58302;51.446;-2.000;2023-06-10T03:28:42;29.08;;;16.70;;
55300;SDS011;58302;51.446;-2.000;2023-06-10T03:31:08;34.95;;;19.05;;
55300;SDS011;58302;51.446;-2.000;2023-06-10T03:33:34;34.67;;;19.23;;
55300;SDS011;58302;51.446;-2.000;2023-06-10T03:35:59;41.67;;;19.05;;
55300;SDS011;58302;51.446;-2.000;2023-06-10T03:38:25;30.92;;;18.38;;
55300;SDS011;58302;51.446;-2.000;2023-06-10T03:40:51;37.42;;;19.25;;
55300;SDS011;58302;51.446;-2.000;2023-06-10T03:43:17;37.72;;;18.85;;
55300;SDS011;58302;51.446;-2.000;2023-06-10T03:45:43;38.50;;;19.08;;
55300;SDS011;58302;51.446;-2.000;2023-06-10T03:48:09;33.38;;;17.60;;
55300;SDS011;58302;51.446;-2.000;2023-06-10T03:50:36;31.02;;;19.17;;
55300;SDS011;58302;51.446;-2.000;2023-06-10T03:53:02;30.65;;;18.17;;
55300;SDS011;58302;51.446;-2.000;2023-06-10T03:55:28;41.33;;;19.73;;
55300;SDS011;58302;51.446;-2.000;2023-06-10T03:57:54;35.25;;;18.30;;
55300;SDS011;58302;51.446;-2.000;2023-06-10T04:00:20;33.20;;;18.55;;
55300;SDS011;58302;51.446;-2.000;2023-06-10T04:02:47;39.40;;;18.95;;
55300;SDS011;58302;51.446;-2.000;2023-06-10T04:05:18;33.20;;;19.63;;
55300;SDS011;58302;51.446;-2.000;2023-06-10T04:07:47;36.75;;;18.60;;
55300;SDS011;58302;51.446;-2.000;2023-06-10T04:10:14;38.17;;;17.83;;
55300;SDS011;58302;51.446;-2.000;2023-06-10T04:12:41;33.28;;;19.02;;
55300;SDS011;58302;51.446;-2.000;2023-06-10T04:15:07;31.10;;;18.73;;
55300;SDS011;58302;51.446;-2.000;2023-06-10T04:17:33;34.08;;;19.88;;
55300;SDS011;58302;51.446;-2.000;2023-06-10T04:20:00;31.83;;;17.52;;
55300;SDS011;58302;51.446;-2.000;2023-06-10T04:22:26;38.25;;;21.02;;
55300;SDS011;58302;51.446;-2.000;2023-06-10T04:24:52;33.58;;;18.33;;
55300;SDS011;58302;51.446;-2.000;2023-06-10T04:27:18;37.15;;;19.65;;
55300;SDS011;58302;51.446;-2.000;2023-06-10T04:29:44;29.08;;;16.58;;
55300;SDS011;58302;51.446;-2.000;2023-06-10T04:32:10;33.78;;;18.15;;
55300;SDS011;58302;51.446;-2.000;2023-06-10T04:34:36;35.17;;;16.92;;
55300;SDS011;58302;51.446;-2.000;2023-06-10T04:37:04;31.08;;;17.38;;
55300;SDS011;58302;51.446;-2.000;2023-06-10T04:39:31;28.73;;;15.30;;
55300;SDS011;58302;51.446;-2.000;2023-06-10T04:41:57;27.02;;;15.43;;
55300;SDS011;58302;51.446;-2.000;2023-06-10T04:44:24;30.05;;;16.08;;
55300;SDS011;58302;51.446;-2.000;2023-06-10T04:46:50;27.10;;;15.57;;
55300;SDS011;58302;51.446;-2.000;2023-06-10T04:49:16;21.27;;;15.05;;
55300;SDS011;58302;51.446;-2.000;2023-06-10T04:51:42;29.02;;;16.05;;
55300;SDS011;58302;51.446;-2.000;2023-06-10T04:54:08;24.85;;;14.73;;
55300;SDS011;58302;51.446;-2.000;2023-06-10T04:56:34;25.67;;;15.30;;
55300;SDS011;58302;51.446;-2.000;2023-06-10T04:59:00;22.92;;;14.93;;
55300;SDS011;58302;51.446;-2.000;2023-06-10T05:01:26;28.02;;;15.40;;
55300;SDS011;58302;51.446;-2.000;2023-06-10T05:03:53;23.90;;;14.90;;
55300;SDS011;58302;51.446;-2.000;2023-06-10T05:06:19;27.67;;;14.55;;
55300;SDS011;58302;51.446;-2.000;2023-06-10T05:08:45;30.15;;;14.48;;
55300;SDS011;58302;51.446;-2.000;2023-06-10T05:11:11;24.58;;;15.23;;
55300;SDS011;58302;51.446;-2.000;2023-06-10T05:13:37;24.20;;;14.50;;
55300;SDS011;58302;51.446;-2.000;2023-06-10T05:16:03;23.02;;;13.68;;
55300;SDS011;58302;51.446;-2.000;2023-06-10T05:18:29;25.55;;;14.20;;
55300;SDS011;58302;51.446;-2.000;2023-06-10T05:20:55;18.95;;;12.25;;
55300;SDS011;58302;51.446;-2.000;2023-06-10T05:23:21;23.63;;;14.55;;
55300;SDS011;58302;51.446;-2.000;2023-06-10T05:25:47;20.38;;;13.70;;
55300;SDS011;58302;51.446;-2.000;2023-06-10T05:28:13;23.20;;;13.10;;
55300;SDS011;58302;51.446;-2.000;2023-06-10T05:30:39;18.60;;;12.63;;
55300;SDS011;58302;51.446;-2.000;2023-06-10T05:33:05;19.88;;;12.73;;
55300;SDS011;58302;51.446;-2.000;2023-06-10T05:35:31;21.95;;;12.70;;
55300;SDS011;58302;51.446;-2.000;2023-06-10T05:37:57;22.92;;;12.02;;
55300;SDS011;58302;51.446;-2.000;2023-06-10T05:40:23;20.42;;;11.60;;
55300;SDS011;58302;51.446;-2.000;2023-06-10T05:42:49;20.35;;;12.15;;
55300;SDS011;58302;51.446;-2.000;2023-06-10T05:45:15;22.58;;;12.05;;
55300;SDS011;58302;51.446;-2.000;2023-06-10T05:47:41;26.90;;;12.32;;
55300;SDS011;58302;51.446;-2.000;2023-06-10T05:50:07;23.05;;;12.00;;
55300;SDS011;58302;51.446;-2.000;2023-06-10T05:52:37;19.15;;;11.82;;
55300;SDS011;58302;51.446;-2.000;2023-06-10T05:55:06;15.75;;;10.70;;
55300;SDS011;58302;51.446;-2.000;2023-06-10T05:57:32;24.92;;;11.95;;
55300;SDS011;58302;51.446;-2.000;2023-06-10T05:59:58;19.10;;;11.38;;
55300;SDS011;58302;51.446;-2.000;2023-06-10T06:02:24;21.73;;;12.60;;
55300;SDS011;58302;51.446;-2.000;2023-06-10T06:04:50;24.73;;;11.90;;
55300;SDS011;58302;51.446;-2.000;2023-06-10T06:07:16;22.10;;;12.18;;
55300;SDS011;58302;51.446;-2.000;2023-06-10T06:09:42;21.35;;;10.45;;
55300;SDS011;58302;51.446;-2.000;2023-06-10T06:12:08;17.15;;;10.80;;
55300;SDS011;58302;51.446;-2.000;2023-06-10T06:14:36;25.23;;;12.10;;
55300;SDS011;58302;51.446;-2.000;2023-06-10T06:17:07;17.67;;;10.98;;
55300;SDS011;58302;51.446;-2.000;2023-06-10T06:19:33;20.08;;;11.35;;
55300;SDS011;58302;51.446;-2.000;2023-06-10T06:21:59;14.57;;;10.52;;
55300;SDS011;58302;51.446;-2.000;2023-06-10T06:24:25;15.13;;;11.30;;
55300;SDS011;58302;51.446;-2.000;2023-06-10T06:26:51;18.38;;;11.35;;
55300;SDS011;58302;51.446;-2.000;2023-06-10T06:29:17;23.00;;;11.75;;
55300;SDS011;58302;51.446;-2.000;2023-06-10T06:31:43;17.40;;;10.93;;
55300;SDS011;58302;51.446;-2.000;2023-06-10T06:34:09;21.15;;;12.10;;
55300;SDS011;58302;51.446;-2.000;2023-06-10T06:36:35;19.65;;;11.55;;
55300;SDS011;58302;51.446;-2.000;2023-06-10T06:39:01;14.77;;;9.63;;
55300;SDS011;58302;51.446;-2.000;2023-06-10T06:41:27;18.20;;;11.25;;
55300;SDS011;58302;51.446;-2.000;2023-06-10T06:43:54;22.88;;;11.57;;
55300;SDS011;58302;51.446;-2.000;2023-06-10T06:46:20;23.83;;;12.30;;
55300;SDS011;58302;51.446;-2.000;2023-06-10T06:48:48;17.88;;;11.65;;
55300;SDS011;58302;51.446;-2.000;2023-06-10T06:51:15;18.27;;;11.25;;
55300;SDS011;58302;51.446;-2.000;2023-06-10T06:53:41;20.38;;;11.27;;
55300;SDS011;58302;51.446;-2.000;2023-06-10T06:56:10;20.38;;;10.65;;
55300;SDS011;58302;51.446;-2.000;2023-06-10T06:58:37;14.93;;;9.52;;
55300;SDS011;58302;51.446;-2.000;2023-06-10T07:01:03;16.48;;;10.50;;
55300;SDS011;58302;51.446;-2.000;2023-06-10T07:03:30;18.25;;;10.45;;
55300;SDS011;58302;51.446;-2.000;2023-06-10T07:05:55;27.52;;;12.70;;
55300;SDS011;58302;51.446;-2.000;2023-06-10T07:08:21;15.63;;;11.18;;
55300;SDS011;58302;51.446;-2.000;2023-06-10T07:10:47;15.85;;;11.70;;
55300;SDS011;58302;51.446;-2.000;2023-06-10T07:13:14;17.10;;;10.52;;
55300;SDS011;58302;51.446;-2.000;2023-06-10T07:15:41;16.75;;;10.27;;
55300;SDS011;58302;51.446;-2.000;2023-06-10T07:18:06;16.13;;;10.80;;
55300;SDS011;58302;51.446;-2.000;2023-06-10T07:20:32;18.83;;;10.82;;
55300;SDS011;58302;51.446;-2.000;2023-06-10T07:22:58;16.45;;;11.15;;
55300;SDS011;58302;51.446;-2.000;2023-06-10T07:25:24;14.75;;;10.52;;
55300;SDS011;58302;51.446;-2.000;2023-06-10T07:27:50;18.55;;;10.50;;
55300;SDS011;58302;51.446;-2.000;2023-06-10T07:30:16;15.95;;;9.65;;
55300;SDS011;58302;51.446;-2.000;2023-06-10T07:32:42;13.40;;;9.95;;
55300;SDS011;58302;51.446;-2.000;2023-06-10T07:35:09;15.32;;;10.55;;
55300;SDS011;58302;51.446;-2.000;2023-06-10T07:37:38;14.68;;;10.10;;
55300;SDS011;58302;51.446;-2.000;2023-06-10T07:40:05;20.00;;;10.18;;
55300;SDS011;58302;51.446;-2.000;2023-06-10T07:42:32;13.75;;;9.52;;
55300;SDS011;58302;51.446;-2.000;2023-06-10T07:45:00;16.45;;;10.50;;
55300;SDS011;58302;51.446;-2.000;2023-06-10T07:47:26;13.32;;;10.05;;
55300;SDS011;58302;51.446;-2.000;2023-06-10T07:49:51;14.40;;;9.95;;
55300;SDS011;58302;51.446;-2.000;2023-06-10T07:52:17;16.85;;;10.95;;
55300;SDS011;58302;51.446;-2.000;2023-06-10T07:54:43;17.65;;;10.68;;
55300;SDS011;58302;51.446;-2.000;2023-06-10T07:57:09;18.58;;;9.20;;
55300;SDS011;58302;51.446;-2.000;2023-06-10T07:59:35;15.85;;;9.80;;
55300;SDS011;58302;51.446;-2.000;2023-06-10T08:02:01;18.00;;;10.18;;
55300;SDS011;58302;51.446;-2.000;2023-06-10T08:04:27;15.68;;;10.40;;
55300;SDS011;58302;51.446;-2.000;2023-06-10T08:06:53;13.75;;;10.75;;
55300;SDS011;58302;51.446;-2.000;2023-06-10T08:09:19;13.85;;;9.40;;
55300;SDS011;58302;51.446;-2.000;2023-06-10T08:11:47;16.48;;;9.20;;
55300;SDS011;58302;51.446;-2.000;2023-06-10T08:14:13;14.88;;;9.27;;
55300;SDS011;58302;51.446;-2.000;2023-06-10T08:16:39;13.38;;;8.77;;
55300;SDS011;58302;51.446;-2.000;2023-06-10T08:19:05;13.35;;;9.55;;
55300;SDS011;58302;51.446;-2.000;2023-06-10T08:21:31;13.60;;;9.45;;
55300;SDS011;58302;51.446;-2.000;2023-06-10T08:23:57;13.25;;;8.82;;
55300;SDS011;58302;51.446;-2.000;2023-06-10T08:26:23;11.68;;;8.45;;
55300;SDS011;58302;51.446;-2.000;2023-06-10T08:28:49;14.25;;;9.82;;
55300;SDS011;58302;51.446;-2.000;2023-06-10T08:31:15;10.38;;;7.63;;
55300;SDS011;58302;51.446;-2.000;2023-06-10T08:33:41;14.80;;;8.52;;
55300;SDS011;58302;51.446;-2.000;2023-06-10T08:36:08;13.32;;;8.23;;
55300;SDS011;58302;51.446;-2.000;2023-06-10T08:38:34;13.45;;;9.40;;
55300;SDS011;58302;51.446;-2.000;2023-06-10T08:41:00;13.30;;;8.13;;
55300;SDS011;58302;51.446;-2.000;2023-06-10T08:43:40;12.35;;;8.65;;
55300;SDS011;58302;51.446;-2.000;2023-06-10T08:46:09;12.75;;;8.35;;
55300;SDS011;58302;51.446;-2.000;2023-06-10T08:48:38;17.02;;;8.30;;
55300;SDS011;58302;51.446;-2.000;2023-06-10T08:51:09;13.80;;;8.35;;
55300;SDS011;58302;51.446;-2.000;2023-06-10T08:53:36;13.90;;;9.00;;
55300;SDS011;58302;51.446;-2.000;2023-06-10T08:56:04;12.98;;;8.98;;
55300;SDS011;58302;51.446;-2.000;2023-06-10T08:58:32;12.65;;;8.75;;
55300;SDS011;58302;51.446;-2.000;2023-06-10T09:01:07;12.95;;;8.82;;
55300;SDS011;58302;51.446;-2.000;2023-06-10T09:03:36;12.90;;;8.75;;
55300;SDS011;58302;51.446;-2.000;2023-06-10T09:06:04;11.45;;;8.10;;
55300;SDS011;58302;51.446;-2.000;2023-06-10T09:08:31;12.73;;;8.55;;
55300;SDS011;58302;51.446;-2.000;2023-06-10T09:10:58;12.82;;;8.55;;
55300;SDS011;58302;51.446;-2.000;2023-06-10T09:13:24;14.75;;;8.43;;
55300;SDS011;58302;51.446;-2.000;2023-06-10T09:15:50;12.95;;;8.30;;
55300;SDS011;58302;51.446;-2.000;2023-06-10T09:18:16;15.73;;;8.85;;
55300;SDS011;58302;51.446;-2.000;2023-06-10T09:20:43;13.23;;;8.82;;
55300;SDS011;58302;51.446;-2.000;2023-06-10T09:23:09;12.25;;;7.90;;
55300;SDS011;58302;51.446;-2.000;2023-06-10T09:25:36;11.02;;;8.90;;
55300;SDS011;58302;51.446;-2.000;2023-06-10T09:28:04;15.43;;;8.70;;
55300;SDS011;58302;51.446;-2.000;2023-06-10T09:30:31;14.15;;;8.65;;
55300;SDS011;58302;51.446;-2.000;2023-06-10T09:33:00;13.32;;;8.40;;
55300;SDS011;58302;51.446;-2.000;2023-06-10T09:35:27;11.02;;;7.60;;
55300;SDS011;58302;51.446;-2.000;2023-06-10T09:37:56;15.20;;;9.05;;
55300;SDS011;58302;51.446;-2.000;2023-06-10T09:40:23;16.75;;;8.85;;
55300;SDS011;58302;51.446;-2.000;2023-06-10T09:42:54;14.20;;;7.88;;
55300;SDS011;58302;51.446;-2.000;2023-06-10T09:45:21;10.65;;;8.75;;
55300;SDS011;58302;51.446;-2.000;2023-06-10T09:47:51;11.10;;;7.65;;
55300;SDS011;58302;51.446;-2.000;2023-06-10T09:50:17;11.05;;;8.05;;
55300;SDS011;58302;51.446;-2.000;2023-06-10T09:52:43;10.43;;;6.78;;
55300;SDS011;58302;51.446;-2.000;2023-06-10T09:55:11;12.27;;;7.35;;
55300;SDS011;58302;51.446;-2.000;2023-06-10T09:57:37;11.15;;;7.90;;
55300;SDS011;58302;51.446;-2.000;2023-06-10T10:00:05;15.40;;;7.78;;
55300;SDS011;58302;51.446;-2.000;2023-06-10T10:02:43;15.15;;;8.18;;
55300;SDS011;58302;51.446;-2.000;2023-06-10T10:05:19;11.32;;;7.30;;
55300;SDS011;58302;51.446;-2.000;2023-06-10T10:07:47;15.65;;;7.80;;
55300;SDS011;58302;51.446;-2.000;2023-06-10T10:23:05;11.30;;;7.72;;
55300;SDS011;58302;51.446;-2.000;2023-06-10T10:25:40;11.95;;;7.05;;
55300;SDS011;58302;51.446;-2.000;2023-06-10T10:28:09;12.13;;;7.63;;
55300;SDS011;58302;51.446;-2.000;2023-06-10T10:30:59;11.27;;;6.93;;
55300;SDS011;58302;51.446;-2.000;2023-06-10T10:33:33;12.85;;;8.55;;
55300;SDS011;58302;51.446;-2.000;2023-06-10T10:36:07;13.85;;;8.30;;
55300;SDS011;58302;51.446;-2.000;2023-06-10T10:38:34;10.65;;;7.38;;
55300;SDS011;58302;51.446;-2.000;2023-06-10T10:41:01;12.85;;;7.82;;
55300;SDS011;58302;51.446;-2.000;2023-06-10T10:43:31;11.45;;;7.72;;
55300;SDS011;58302;51.446;-2.000;2023-06-10T10:46:00;11.00;;;7.43;;
55300;SDS011;58302;51.446;-2.000;2023-06-10T10:48:32;10.85;;;7.80;;
55300;SDS011;58302;51.446;-2.000;2023-06-10T10:51:02;10.18;;;7.65;;
55300;SDS011;58302;51.446;-2.000;2023-06-10T10:53:29;12.85;;;8.25;;
55300;SDS011;58302;51.446;-2.000;2023-06-10T10:55:59;9.25;;;6.50;;
55300;SDS011;58302;51.446;-2.000;2023-06-10T10:58:35;14.93;;;7.65;;
55300;SDS011;58302;51.446;-2.000;2023-06-10T11:01:09;9.93;;;7.25;;
55300;SDS011;58302;51.446;-2.000;2023-06-10T11:03:44;12.77;;;7.13;;
55300;SDS011;58302;51.446;-2.000;2023-06-10T11:06:13;14.15;;;8.10;;
55300;SDS011;58302;51.446;-2.000;2023-06-10T11:11:20;9.55;;;7.32;;
55300;SDS011;58302;51.446;-2.000;2023-06-10T11:13:59;10.13;;;7.22;;
55300;SDS011;58302;51.446;-2.000;2023-06-10T11:16:40;11.18;;;6.97;;
55300;SDS011;58302;51.446;-2.000;2023-06-10T11:19:09;12.05;;;7.50;;
55300;SDS011;58302;51.446;-2.000;2023-06-10T11:21:59;11.05;;;7.05;;
55300;SDS011;58302;51.446;-2.000;2023-06-10T11:24:27;10.10;;;7.60;;
55300;SDS011;58302;51.446;-2.000;2023-06-10T11:26:55;10.70;;;8.05;;
55300;SDS011;58302;51.446;-2.000;2023-06-10T11:29:54;8.95;;;7.38;;
55300;SDS011;58302;51.446;-2.000;2023-06-10T11:32:43;9.82;;;7.43;;
55300;SDS011;58302;51.446;-2.000;2023-06-10T11:35:10;10.38;;;7.57;;
55300;SDS011;58302;51.446;-2.000;2023-06-10T11:37:36;8.25;;;6.82;;
55300;SDS011;58302;51.446;-2.000;2023-06-10T11:40:03;9.30;;;6.43;;
55300;SDS011;58302;51.446;-2.000;2023-06-10T11:42:29;9.35;;;7.10;;
55300;SDS011;58302;51.446;-2.000;2023-06-10T11:44:56;14.93;;;7.38;;
55300;SDS011;58302;51.446;-2.000;2023-06-10T11:47:28;13.43;;;7.95;;
55300;SDS011;58302;51.446;-2.000;2023-06-10T11:49:57;10.80;;;7.30;;
55300;SDS011;58302;51.446;-2.000;2023-06-10T11:52:28;8.63;;;6.70;;
55300;SDS011;58302;51.446;-2.000;2023-06-10T11:54:57;8.10;;;5.73;;
55300;SDS011;58302;51.446;-2.000;2023-06-10T11:57:23;7.45;;;6.40;;
55300;SDS011;58302;51.446;-2.000;2023-06-10T11:59:50;10.10;;;7.05;;
55300;SDS011;58302;51.446;-2.000;2023-06-10T12:02:17;12.10;;;6.80;;
55300;SDS011;58302;51.446;-2.000;2023-06-10T12:04:44;8.07;;;6.82;;
55300;SDS011;58302;51.446;-2.000;2023-06-10T12:07:16;8.10;;;6.68;;
55300;SDS011;58302;51.446;-2.000;2023-06-10T12:09:46;10.80;;;7.70;;
55300;SDS011;58302;51.446;-2.000;2023-06-10T12:12:12;9.15;;;6.25;;
55300;SDS011;58302;51.446;-2.000;2023-06-10T12:19:53;8.55;;;6.80;;
55300;SDS011;58302;51.446;-2.000;2023-06-10T12:22:19;8.75;;;6.40;;
55300;SDS011;58302;51.446;-2.000;2023-06-10T12:24:56;7.50;;;6.03;;
55300;SDS011;58302;51.446;-2.000;2023-06-10T12:27:27;7.40;;;6.63;;
55300;SDS011;58302;51.446;-2.000;2023-06-10T12:29:55;8.50;;;6.95;;
55300;SDS011;58302;51.446;-2.000;2023-06-10T12:35:04;8.18;;;7.38;;
55300;SDS011;58302;51.446;-2.000;2023-06-10T12:37:32;10.15;;;6.43;;
55300;SDS011;58302;51.446;-2.000;2023-06-10T12:40:05;9.83;;;6.80;;
55300;SDS011;58302;51.446;-2.000;2023-06-10T12:42:37;9.88;;;7.18;;
55300;SDS011;58302;51.446;-2.000;2023-06-10T12:45:04;8.80;;;6.25;;
55300;SDS011;58302;51.446;-2.000;2023-06-10T12:47:36;8.80;;;6.53;;
55300;SDS011;58302;51.446;-2.000;2023-06-10T12:50:06;7.88;;;5.80;;
55300;SDS011;58302;51.446;-2.000;2023-06-10T12:52:32;8.32;;;7.13;;
55300;SDS011;58302;51.446;-2.000;2023-06-10T12:54:58;8.73;;;7.15;;
55300;SDS011;58302;51.446;-2.000;2023-06-10T12:57:26;9.18;;;6.70;;
55300;SDS011;58302;51.446;-2.000;2023-06-10T12:59:53;7.80;;;6.30;;
55300;SDS011;58302;51.446;-2.000;2023-06-10T13:02:19;7.47;;;5.78;;
55300;SDS011;58302;51.446;-2.000;2023-06-10T13:04:50;8.07;;;6.35;;
55300;SDS011;58302;51.446;-2.000;2023-06-10T13:07:16;8.82;;;6.20;;
55300;SDS011;58302;51.446;-2.000;2023-06-10T13:09:44;6.45;;;5.70;;
55300;SDS011;58302;51.446;-2.000;2023-06-10T13:14:53;6.57;;;5.70;;
55300;SDS011;58302;51.446;-2.000;2023-06-10T13:17:19;10.13;;;6.15;;
55300;SDS011;58302;51.446;-2.000;2023-06-10T13:19:45;6.53;;;5.60;;
55300;SDS011;58302;51.446;-2.000;2023-06-10T13:22:11;7.68;;;5.80;;
55300;SDS011;58302;51.446;-2.000;2023-06-10T13:24:40;7.07;;;5.90;;
55300;SDS011;58302;51.446;-2.000;2023-06-10T13:27:10;10.65;;;6.95;;
55300;SDS011;58302;51.446;-2.000;2023-06-10T13:29:36;7.05;;;5.68;;
55300;SDS011;58302;51.446;-2.000;2023-06-10T13:32:03;7.15;;;5.90;;
55300;SDS011;58302;51.446;-2.000;2023-06-10T13:34:29;8.05;;;6.60;;
55300;SDS011;58302;51.446;-2.000;2023-06-10T13:37:15;7.35;;;6.45;;
55300;SDS011;58302;51.446;-2.000;2023-06-10T13:39:46;9.30;;;6.15;;
55300;SDS011;58302;51.446;-2.000;2023-06-10T13:42:17;8.57;;;6.22;;
55300;SDS011;58302;51.446;-2.000;2023-06-10T13:44:44;6.97;;;5.38;;
55300;SDS011;58302;51.446;-2.000;2023-06-10T13:47:11;6.32;;;5.70;;
55300;SDS011;58302;51.446;-2.000;2023-06-10T13:49:37;7.40;;;6.45;;
55300;SDS011;58302;51.446;-2.000;2023-06-10T13:52:03;7.80;;;6.32;;
55300;SDS011;58302;51.446;-2.000;2023-06-10T13:54:29;7.72;;;6.93;;
55300;SDS011;58302;51.446;-2.000;2023-06-10T13:56:55;7.35;;;6.65;;
55300;SDS011;58302;51.446;-2.000;2023-06-10T13:59:21;9.60;;;6.32;;
55300;SDS011;58302;51.446;-2.000;2023-06-10T14:01:48;6.85;;;6.15;;
55300;SDS011;58302;51.446;-2.000;2023-06-10T14:04:14;7.82;;;5.88;;
55300;SDS011;58302;51.446;-2.000;2023-06-10T14:06:42;8.20;;;5.65;;
55300;SDS011;58302;51.446;-2.000;2023-06-10T14:09:09;9.50;;;7.45;;
55300;SDS011;58302;51.446;-2.000;2023-06-10T14:11:35;10.05;;;7.18;;
55300;SDS011;58302;51.446;-2.000;2023-06-10T14:14:01;9.15;;;7.25;;
55300;SDS011;58302;51.446;-2.000;2023-06-10T14:16:27;8.65;;;6.63;;
55300;SDS011;58302;51.446;-2.000;2023-06-10T14:18:53;6.78;;;6.18;;
55300;SDS011;58302;51.446;-2.000;2023-06-10T14:21:21;8.70;;;6.22;;
55300;SDS011;58302;51.446;-2.000;2023-06-10T14:23:47;7.47;;;5.88;;
55300;SDS011;58302;51.446;-2.000;2023-06-10T14:26:14;9.20;;;6.07;;
55300;SDS011;58302;51.446;-2.000;2023-06-10T14:28:40;7.40;;;5.70;;
55300;SDS011;58302;51.446;-2.000;2023-06-10T14:31:06;9.07;;;6.15;;
55300;SDS011;58302;51.446;-2.000;2023-06-10T14:33:33;8.52;;;5.70;;
55300;SDS011;58302;51.446;-2.000;2023-06-10T14:35:59;9.57;;;5.68;;
55300;SDS011;58302;51.446;-2.000;2023-06-10T14:38:25;8.40;;;6.35;;
55300;SDS011;58302;51.446;-2.000;2023-06-10T14:40:51;8.90;;;5.70;;
55300;SDS011;58302;51.446;-2.000;2023-06-10T14:43:18;6.18;;;5.57;;
55300;SDS011;58302;51.446;-2.000;2023-06-10T14:45:44;6.72;;;6.03;;
55300;SDS011;58302;51.446;-2.000;2023-06-10T14:48:12;9.00;;;6.00;;
55300;SDS011;58302;51.446;-2.000;2023-06-10T14:50:39;8.82;;;6.53;;
55300;SDS011;58302;51.446;-2.000;2023-06-10T14:53:07;7.93;;;5.95;;